createdAt,value
2018-11-05T00:00:30.571Z,2.60
2018-11-05T00:02:59.049Z,2.70
2018-11-05T00:05:27.558Z,2.80
2018-11-05T00:07:56.112Z,2.90
2018-11-05T00:10:24.626Z,2.90
2018-11-05T00:12:53.129Z,2.80
2018-11-05T00:15:21.620Z,2.80
2018-11-05T00:17:50.114Z,2.70
2018-11-05T00:20:18.771Z,2.70
2018-11-05T00:22:47.226Z,2.70
2018-11-05T00:25:15.714Z,2.70
2018-11-05T00:27:44.255Z,2.70
2018-11-05T00:30:13.700Z,2.80
2018-11-05T00:32:42.647Z,2.80
2018-11-05T00:35:11.365Z,2.80
2018-11-05T00:37:39.998Z,2.80
2018-11-05T00:40:12.065Z,2.90
2018-11-05T00:42:40.687Z,3.00
2018-11-05T00:45:10.214Z,3.00
2018-11-05T00:47:38.943Z,3.00
2018-11-05T00:50:09.367Z,2.90
2018-11-05T00:52:38.036Z,2.90
2018-11-05T00:55:06.751Z,3.00
2018-11-05T00:57:35.343Z,3.00
2018-11-05T01:00:04.271Z,2.90
2018-11-05T01:02:32.768Z,2.80
2018-11-05T01:05:01.239Z,2.80
2018-11-05T01:07:29.718Z,2.90
2018-11-05T01:09:58.269Z,2.80
2018-11-05T01:12:27.000Z,2.70
2018-11-05T01:14:55.544Z,2.70
2018-11-05T01:17:24.020Z,2.60
2018-11-05T01:19:52.486Z,2.70
2018-11-05T01:22:20.992Z,2.60
2018-11-05T01:24:49.688Z,2.60
2018-11-05T01:27:18.227Z,2.70
2018-11-05T01:29:46.747Z,2.70
2018-11-05T01:32:21.535Z,2.80
2018-11-05T01:34:50.041Z,2.90
2018-11-05T01:37:18.705Z,3.00
2018-11-05T01:39:47.066Z,3.00
2018-11-05T01:42:15.506Z,3.00
2018-11-05T01:44:43.979Z,3.00
2018-11-05T01:47:12.457Z,3.00
2018-11-05T01:49:40.918Z,3.00
2018-11-05T01:52:09.698Z,2.90
2018-11-05T01:54:38.197Z,3.00
2018-11-05T01:57:06.663Z,3.00
2018-11-05T01:59:35.108Z,3.00
2018-11-05T02:02:03.554Z,3.00
2018-11-05T02:04:32.098Z,3.00
2018-11-05T02:07:00.582Z,3.00
2018-11-05T02:09:29.130Z,3.00
2018-11-05T02:11:57.793Z,2.90
2018-11-05T02:14:26.313Z,2.90
2018-11-05T02:16:54.842Z,2.90
2018-11-05T02:19:23.342Z,3.00
2018-11-05T02:21:51.791Z,2.90
2018-11-05T02:24:20.286Z,2.90
2018-11-05T02:26:48.779Z,2.90
2018-11-05T02:29:17.296Z,2.90
2018-11-05T02:31:45.878Z,2.90
2018-11-05T02:34:14.412Z,3.00
2018-11-05T02:36:42.996Z,3.10
2018-11-05T02:39:11.568Z,3.10
2018-11-05T02:41:40.014Z,3.20
2018-11-05T02:44:08.595Z,3.20
2018-11-05T02:46:37.071Z,3.30
2018-11-05T02:49:05.611Z,3.40
2018-11-05T02:51:34.127Z,3.50
2018-11-05T02:54:02.632Z,3.50
2018-11-05T02:56:31.127Z,3.50
2018-11-05T02:58:59.563Z,3.50
2018-11-05T03:01:28.095Z,3.60
2018-11-05T03:03:56.906Z,3.60
2018-11-05T03:06:25.289Z,3.50
2018-11-05T03:08:53.678Z,3.60
2018-11-05T03:11:22.112Z,3.70
2018-11-05T03:13:50.559Z,3.70
2018-11-05T03:16:19.102Z,3.70
2018-11-05T03:18:47.543Z,3.60
2018-11-05T03:21:16.030Z,3.60
2018-11-05T03:23:44.420Z,3.70
2018-11-05T03:26:12.846Z,3.70
2018-11-05T03:28:41.339Z,3.70
2018-11-05T03:31:09.747Z,3.60
2018-11-05T03:33:38.145Z,3.60
2018-11-05T03:36:06.730Z,3.50
2018-11-05T03:38:35.191Z,3.50
2018-11-05T03:41:03.655Z,3.60
2018-11-05T03:43:32.111Z,3.40
2018-11-05T03:46:00.744Z,3.40
2018-11-05T03:48:29.240Z,3.40
2018-11-05T03:50:57.654Z,3.60
2018-11-05T03:53:26.084Z,3.70
2018-11-05T03:55:54.568Z,4.00
2018-11-05T03:58:22.966Z,4.40
2018-11-05T04:00:51.407Z,4.80
2018-11-05T04:03:19.867Z,4.90
2018-11-05T04:05:48.267Z,5.00
2018-11-05T04:08:16.678Z,5.00
2018-11-05T04:10:45.103Z,5.00
2018-11-05T04:13:13.523Z,4.90
2018-11-05T04:15:41.995Z,4.90
2018-11-05T04:18:10.371Z,4.90
2018-11-05T04:20:38.810Z,4.70
2018-11-05T04:23:07.242Z,4.80
2018-11-05T04:25:35.705Z,4.80
2018-11-05T04:28:04.278Z,4.80
2018-11-05T04:30:32.764Z,4.70
2018-11-05T04:33:01.198Z,4.60
2018-11-05T04:35:29.644Z,4.50
2018-11-05T04:37:58.281Z,4.40
2018-11-05T04:40:27.703Z,4.30
2018-11-05T04:42:56.119Z,4.20
2018-11-05T04:45:24.520Z,4.20
2018-11-05T04:47:52.940Z,4.20
2018-11-05T04:50:21.394Z,4.10
2018-11-05T04:52:49.787Z,4.00
2018-11-05T04:55:18.193Z,4.00
2018-11-05T04:57:46.595Z,3.90
2018-11-05T05:00:15.899Z,3.80
2018-11-05T05:02:44.382Z,3.70
2018-11-05T05:05:13.845Z,3.60
2018-11-05T05:07:42.414Z,3.40
2018-11-05T05:10:10.969Z,3.40
2018-11-05T05:12:40.508Z,3.80
2018-11-05T05:15:09.419Z,4.10
2018-11-05T05:17:38.122Z,4.20
2018-11-05T05:20:08.766Z,4.10
2018-11-05T05:22:37.300Z,3.90
2018-11-05T05:25:05.843Z,3.70
2018-11-05T05:27:34.301Z,3.60
2018-11-05T05:30:02.795Z,3.60
2018-11-05T05:32:31.234Z,3.40
2018-11-05T05:34:59.690Z,3.40
2018-11-05T05:37:28.135Z,3.40
2018-11-05T05:39:56.583Z,3.40
2018-11-05T05:42:25.039Z,3.40
2018-11-05T05:44:53.482Z,3.30
2018-11-05T05:47:21.935Z,3.30
2018-11-05T05:49:50.367Z,3.20
2018-11-05T05:52:18.822Z,3.20
2018-11-05T05:54:48.235Z,3.20
2018-11-05T05:57:16.615Z,3.20
2018-11-05T05:59:45.203Z,3.30
2018-11-05T06:02:15.634Z,3.20
2018-11-05T06:04:44.087Z,3.10
2018-11-05T06:07:12.481Z,3.10
2018-11-05T06:09:40.917Z,3.20
2018-11-05T06:12:09.349Z,3.20
2018-11-05T06:14:37.732Z,3.20
2018-11-05T06:17:06.122Z,3.30
2018-11-05T06:19:34.517Z,3.30
2018-11-05T06:22:02.966Z,3.60
2018-11-05T06:24:31.378Z,4.00
2018-11-05T06:26:59.814Z,4.10
2018-11-05T06:29:28.297Z,4.20
2018-11-05T06:31:56.930Z,4.40
2018-11-05T06:34:25.391Z,4.60
2018-11-05T06:36:53.877Z,4.80
2018-11-05T06:39:22.287Z,4.90
2018-11-05T06:41:51.793Z,4.90
2018-11-05T06:44:20.279Z,4.90
2018-11-05T06:46:48.602Z,4.90
2018-11-05T06:49:17.244Z,4.90
2018-11-05T06:51:45.644Z,5.00
2018-11-05T06:54:14.357Z,5.00
2018-11-05T06:56:42.857Z,5.20
2018-11-05T06:59:11.263Z,5.20
2018-11-05T07:01:39.664Z,5.20
2018-11-05T07:04:08.072Z,5.30
2018-11-05T07:06:36.526Z,5.30
2018-11-05T07:09:09.014Z,5.30
2018-11-05T07:11:37.858Z,5.40
2018-11-05T07:14:06.362Z,5.40
2018-11-05T07:16:34.843Z,5.40
2018-11-05T07:19:03.828Z,5.40
2018-11-05T07:21:31.964Z,5.50
2018-11-05T07:24:01.423Z,5.50
2018-11-05T07:26:30.124Z,5.50
2018-11-05T07:28:58.669Z,5.50
2018-11-05T07:31:28.075Z,5.50
2018-11-05T07:33:56.811Z,5.60
2018-11-05T07:36:25.034Z,5.60
2018-11-05T07:38:53.508Z,5.70
2018-11-05T07:41:21.948Z,5.80
2018-11-05T07:43:50.429Z,5.80
2018-11-05T07:46:18.858Z,5.80
2018-11-05T07:48:47.321Z,5.80
2018-11-05T07:51:16.737Z,5.80
2018-11-05T07:53:45.240Z,5.80
2018-11-05T07:56:13.820Z,5.70
2018-11-05T07:58:42.181Z,5.70
2018-11-05T08:01:11.594Z,5.80
2018-11-05T08:03:40.035Z,5.80
2018-11-05T08:06:08.461Z,5.80
2018-11-05T08:08:36.895Z,5.90
2018-11-05T08:11:05.362Z,5.90
2018-11-05T08:13:33.774Z,5.90
2018-11-05T08:16:02.299Z,6.00
2018-11-05T08:18:30.828Z,6.10
2018-11-05T08:20:59.451Z,6.10
2018-11-05T08:23:27.882Z,6.10
2018-11-05T08:25:56.408Z,6.10
2018-11-05T08:28:24.910Z,6.00
2018-11-05T08:30:55.431Z,6.10
2018-11-05T08:33:23.941Z,6.10
2018-11-05T08:35:52.343Z,6.20
2018-11-05T08:38:20.764Z,6.30
2018-11-05T08:40:49.181Z,6.40
2018-11-05T08:43:17.613Z,6.60
2018-11-05T08:45:46.063Z,6.60
2018-11-05T08:48:14.492Z,6.80
2018-11-05T08:50:43.062Z,6.90
2018-11-05T08:53:11.390Z,7.10
2018-11-05T08:55:39.791Z,7.30
2018-11-05T08:58:08.209Z,7.40
2018-11-05T09:00:41.855Z,7.60
2018-11-05T09:03:10.306Z,7.60
2018-11-05T09:05:38.716Z,7.70
2018-11-05T09:08:07.144Z,7.70
2018-11-05T09:10:38.802Z,7.70
2018-11-05T09:13:06.943Z,7.70
2018-11-05T09:15:35.369Z,7.70
2018-11-05T09:18:04.922Z,7.70
2018-11-05T09:20:33.481Z,7.80
2018-11-05T09:23:01.862Z,7.80
2018-11-05T09:25:30.291Z,7.90
2018-11-05T09:27:58.726Z,8.00
2018-11-05T09:30:27.221Z,8.10
2018-11-05T09:32:55.813Z,8.20
2018-11-05T09:35:24.293Z,8.30
2018-11-05T09:37:52.892Z,8.40
2018-11-05T09:40:22.678Z,8.50
2018-11-05T09:42:51.373Z,8.60
2018-11-05T09:45:21.277Z,8.80
2018-11-05T09:47:49.707Z,8.90
2018-11-05T09:50:18.790Z,9.00
2018-11-05T09:52:51.072Z,9.10
2018-11-05T09:55:19.642Z,9.30
2018-11-05T09:57:48.101Z,9.30
2018-11-05T10:00:21.695Z,9.30
2018-11-05T10:02:55.579Z,9.10
2018-11-05T10:05:23.918Z,9.00
2018-11-05T10:07:52.354Z,8.80
2018-11-05T10:10:20.870Z,8.60
2018-11-05T10:12:49.223Z,8.50
2018-11-05T10:15:18.257Z,8.40
2018-11-05T10:17:46.703Z,8.40
2018-11-05T10:20:19.932Z,8.40
2018-11-05T10:22:48.408Z,8.40
2018-11-05T10:25:17.143Z,8.50
2018-11-05T10:27:45.911Z,8.50
2018-11-05T10:30:16.582Z,8.60
2018-11-05T10:32:45.109Z,8.60
2018-11-05T10:35:14.196Z,8.80
2018-11-05T10:37:42.585Z,8.90
2018-11-05T10:40:13.041Z,9.10
2018-11-05T10:42:42.078Z,9.20
2018-11-05T10:45:17.919Z,9.30
2018-11-05T10:47:47.423Z,9.60
2018-11-05T10:50:16.891Z,9.80
2018-11-05T10:52:46.786Z,10.00
2018-11-05T10:55:15.239Z,10.20
2018-11-05T10:57:44.020Z,10.30
2018-11-05T11:00:19.249Z,10.40
2018-11-05T11:02:53.204Z,10.60
2018-11-05T11:05:22.049Z,10.80
2018-11-05T11:07:52.251Z,11.00
2018-11-05T11:10:20.653Z,11.00
2018-11-05T11:12:49.147Z,11.10
2018-11-05T11:15:17.839Z,11.10
2018-11-05T11:17:46.097Z,11.20
2018-11-05T11:20:14.750Z,11.20
2018-11-05T11:22:43.276Z,11.10
2018-11-05T11:25:12.823Z,11.00
2018-11-05T11:27:41.406Z,10.90
2018-11-05T11:30:11.479Z,10.90
2018-11-05T11:32:40.175Z,10.80
2018-11-05T11:35:09.202Z,10.70
2018-11-05T11:37:38.147Z,10.70
2018-11-05T11:40:14.041Z,10.60
2018-11-05T11:42:43.503Z,10.60
2018-11-05T11:45:12.635Z,10.60
2018-11-05T11:47:41.174Z,10.70
2018-11-05T11:50:11.207Z,10.70
2018-11-05T11:52:39.852Z,10.70
2018-11-05T11:55:10.314Z,10.50
2018-11-05T11:57:39.050Z,10.50
2018-11-05T12:00:10.000Z,10.50
2018-11-05T12:02:38.523Z,10.40
2018-11-05T12:05:07.653Z,10.50
2018-11-05T12:07:42.947Z,10.60
2018-11-05T12:10:16.174Z,10.60
2018-11-05T12:12:44.853Z,10.70
2018-11-05T12:15:14.418Z,10.80
2018-11-05T12:17:45.849Z,10.90
2018-11-05T12:20:21.982Z,11.20
2018-11-05T12:22:50.899Z,11.50
2018-11-05T12:25:19.479Z,11.70
2018-11-05T12:27:48.053Z,12.00
2018-11-05T12:30:18.470Z,12.30
2018-11-05T12:32:47.819Z,12.80
2018-11-05T12:35:16.345Z,12.90
2018-11-05T12:37:45.915Z,13.20
2018-11-05T12:40:15.647Z,13.20
2018-11-05T12:42:45.417Z,13.10
2018-11-05T12:45:13.904Z,13.10
2018-11-05T12:47:42.422Z,13.10
2018-11-05T12:50:15.974Z,13.00
2018-11-05T12:52:45.419Z,13.00
2018-11-05T12:55:14.000Z,13.10
2018-11-05T12:57:42.743Z,13.10
2018-11-05T13:00:18.311Z,13.10
2018-11-05T13:02:52.751Z,13.00
2018-11-05T13:05:21.517Z,13.00
2018-11-05T13:07:50.111Z,12.90
2018-11-05T13:10:18.723Z,12.90
2018-11-05T13:12:47.264Z,12.70
2018-11-05T13:15:15.935Z,12.80
2018-11-05T13:17:44.326Z,12.90
2018-11-05T13:20:14.840Z,12.90
2018-11-05T13:22:43.720Z,13.10
2018-11-05T13:25:12.323Z,13.30
2018-11-05T13:27:42.142Z,13.50
2018-11-05T13:30:11.533Z,13.70
2018-11-05T13:32:40.595Z,13.90
2018-11-05T13:35:10.913Z,14.00
2018-11-05T13:37:39.943Z,14.00
2018-11-05T13:40:10.253Z,14.10
2018-11-05T13:42:39.956Z,13.90
2018-11-05T13:45:09.438Z,13.80
2018-11-05T13:47:39.013Z,13.80
2018-11-05T13:50:07.904Z,13.50
2018-11-05T13:52:36.423Z,13.30
2018-11-05T13:55:05.413Z,13.00
2018-11-05T13:57:33.816Z,12.80
2018-11-05T14:00:02.471Z,12.70
2018-11-05T14:02:31.026Z,12.60
2018-11-05T14:04:59.514Z,12.50
2018-11-05T14:07:28.016Z,12.40
2018-11-05T14:09:56.604Z,12.30
2018-11-05T14:12:25.126Z,12.30
2018-11-05T14:14:53.651Z,12.30
2018-11-05T14:17:22.280Z,12.30
2018-11-05T14:19:50.920Z,12.40
2018-11-05T14:22:19.488Z,12.60
2018-11-05T14:24:48.064Z,12.80
2018-11-05T14:27:17.425Z,12.80
2018-11-05T14:29:46.452Z,12.90
2018-11-05T14:32:14.691Z,12.80
2018-11-05T14:34:43.160Z,12.60
2018-11-05T14:37:11.825Z,12.30
2018-11-05T14:39:41.303Z,12.10
2018-11-05T14:42:09.846Z,11.80
2018-11-05T14:44:38.415Z,11.60
2018-11-05T14:47:06.959Z,11.50
2018-11-05T14:49:35.551Z,11.50
2018-11-05T14:52:04.134Z,11.30
2018-11-05T14:54:32.650Z,11.20
2018-11-05T14:57:01.191Z,11.00
2018-11-05T14:59:29.710Z,10.90
2018-11-05T15:02:04.080Z,10.70
2018-11-05T15:04:32.653Z,10.60
2018-11-05T15:07:01.284Z,10.50
2018-11-05T15:09:29.897Z,10.50
2018-11-05T15:11:58.452Z,10.40
2018-11-05T15:14:26.986Z,10.40
2018-11-05T15:16:55.535Z,10.40
2018-11-05T15:19:25.414Z,10.30
2018-11-05T15:21:53.908Z,10.30
2018-11-05T15:24:22.709Z,10.30
2018-11-05T15:26:51.290Z,10.40
2018-11-05T15:29:19.694Z,10.30
2018-11-05T15:31:48.263Z,10.40
2018-11-05T15:34:16.913Z,10.40
2018-11-05T15:36:45.728Z,10.50
2018-11-05T15:39:14.300Z,10.50
2018-11-05T15:41:42.890Z,10.50
2018-11-05T15:44:12.394Z,10.50
2018-11-05T15:46:41.936Z,10.50
2018-11-05T15:49:12.995Z,10.50
2018-11-05T15:51:43.853Z,10.60
2018-11-05T15:54:13.226Z,10.60
2018-11-05T15:56:42.505Z,10.60
2018-11-05T15:59:12.264Z,10.60
2018-11-05T16:01:41.773Z,10.60
2018-11-05T16:04:11.226Z,10.60
2018-11-05T16:06:40.787Z,10.60
2018-11-05T16:09:10.374Z,10.50
2018-11-05T16:11:38.907Z,10.40
2018-11-05T16:14:07.670Z,10.40
2018-11-05T16:16:36.768Z,10.40
2018-11-05T16:19:05.775Z,10.30
2018-11-05T16:21:34.391Z,10.40
2018-11-05T16:24:02.924Z,10.30
2018-11-05T16:26:31.532Z,10.40
2018-11-05T16:29:00.101Z,10.40
2018-11-05T16:31:28.689Z,10.40
2018-11-05T16:33:57.257Z,10.40
2018-11-05T16:36:25.808Z,10.40
2018-11-05T16:38:54.352Z,10.30
2018-11-05T16:41:22.909Z,10.30
2018-11-05T16:43:51.426Z,10.20
2018-11-05T16:46:20.045Z,10.10
2018-11-05T16:48:50.656Z,10.00
2018-11-05T16:51:19.335Z,9.90
2018-11-05T16:53:47.952Z,9.90
2018-11-05T16:56:16.421Z,9.80
2018-11-05T16:58:45.050Z,9.80
2018-11-05T17:01:13.932Z,9.80
2018-11-05T17:03:42.359Z,9.80
2018-11-05T17:06:11.072Z,9.60
2018-11-05T17:08:39.654Z,9.60
2018-11-05T17:11:08.443Z,9.70
2018-11-05T17:13:36.962Z,9.70
2018-11-05T17:16:06.072Z,9.60
2018-11-05T17:18:34.527Z,9.60
2018-11-05T17:21:03.097Z,9.60
2018-11-05T17:23:31.562Z,9.70
2018-11-05T17:26:00.200Z,9.70
2018-11-05T17:28:28.663Z,9.50
2018-11-05T17:30:57.110Z,9.40
2018-11-05T17:33:25.565Z,9.30
2018-11-05T17:35:54.055Z,9.00
2018-11-05T17:38:22.596Z,8.90
2018-11-05T17:40:51.141Z,8.80
2018-11-05T17:43:19.773Z,8.70
2018-11-05T17:45:48.375Z,8.60
2018-11-05T17:48:16.923Z,8.50
2018-11-05T17:50:45.436Z,8.50
2018-11-05T17:53:13.937Z,8.60
2018-11-05T17:55:42.384Z,8.50
2018-11-05T17:58:10.894Z,8.40
2018-11-05T18:00:41.455Z,8.30
2018-11-05T18:03:09.932Z,8.30
2018-11-05T18:05:39.488Z,8.30
2018-11-05T18:08:08.045Z,8.30
2018-11-05T18:10:36.571Z,8.60
2018-11-05T18:13:05.341Z,8.90
2018-11-05T18:15:34.994Z,9.20
2018-11-05T18:18:03.482Z,9.30
2018-11-05T18:20:32.012Z,9.60
2018-11-05T18:23:00.538Z,9.80
2018-11-05T18:25:29.097Z,9.80
2018-11-05T18:27:57.592Z,9.90
2018-11-05T18:30:26.193Z,10.00
2018-11-05T18:32:54.802Z,10.00
2018-11-05T18:35:23.305Z,10.10
2018-11-05T18:37:52.407Z,10.10
2018-11-05T18:40:20.998Z,10.20
2018-11-05T18:42:49.605Z,10.20
2018-11-05T18:45:18.970Z,10.40
2018-11-05T18:47:47.593Z,10.40
2018-11-05T18:50:16.578Z,10.40
2018-11-05T18:52:45.415Z,10.40
2018-11-05T18:55:15.334Z,10.40
2018-11-05T18:57:43.863Z,10.40
2018-11-05T19:00:21.840Z,10.50
2018-11-05T19:02:51.223Z,10.60
2018-11-05T19:05:20.137Z,10.50
2018-11-05T19:07:48.823Z,10.60
2018-11-05T19:10:18.487Z,10.70
2018-11-05T19:12:47.413Z,10.60
2018-11-05T19:15:16.192Z,10.70
2018-11-05T19:17:45.557Z,10.70
2018-11-05T19:20:14.321Z,10.70
2018-11-05T19:22:44.531Z,10.60
2018-11-05T19:25:13.811Z,10.60
2018-11-05T19:27:42.665Z,10.60
2018-11-05T19:30:13.547Z,10.60
2018-11-05T19:32:42.004Z,10.50
2018-11-05T19:35:11.232Z,10.50
2018-11-05T19:37:40.041Z,10.50
2018-11-05T19:40:10.177Z,10.50
2018-11-05T19:42:43.576Z,10.50
2018-11-05T19:45:13.756Z,10.50
2018-11-05T19:47:42.263Z,10.40
2018-11-05T19:50:13.010Z,10.40
2018-11-05T19:52:42.556Z,10.40
2018-11-05T19:55:12.591Z,10.30
2018-11-05T19:57:42.053Z,10.30
2018-11-05T20:00:19.209Z,10.30
2018-11-05T20:02:48.470Z,10.30
2018-11-05T20:05:17.636Z,10.20
2018-11-05T20:07:47.541Z,10.20
2018-11-05T20:10:16.204Z,10.20
2018-11-05T20:12:45.446Z,10.10
2018-11-05T20:15:14.160Z,10.10
2018-11-05T20:17:43.414Z,10.20
2018-11-05T20:20:13.271Z,10.20
2018-11-05T20:22:42.779Z,10.30
2018-11-05T20:25:11.563Z,10.20
2018-11-05T20:27:40.530Z,10.20
2018-11-05T20:30:11.139Z,10.20
2018-11-05T20:32:40.267Z,10.30
2018-11-05T20:35:08.571Z,10.30
2018-11-05T20:37:37.135Z,10.40
2018-11-05T20:40:07.609Z,10.50
2018-11-05T20:42:36.067Z,10.50
2018-11-05T20:45:04.679Z,10.50
2018-11-05T20:47:35.563Z,10.50
2018-11-05T20:50:06.767Z,10.50
2018-11-05T20:52:35.502Z,10.50
2018-11-05T20:55:04.146Z,10.30
2018-11-05T20:57:32.752Z,10.20
2018-11-05T21:00:01.344Z,10.00
2018-11-05T21:02:30.134Z,9.90
2018-11-05T21:04:58.747Z,9.80
2018-11-05T21:07:27.307Z,9.70
2018-11-05T21:09:55.901Z,9.60
2018-11-05T21:12:24.391Z,9.50
2018-11-05T21:14:53.940Z,9.40
2018-11-05T21:17:22.884Z,9.40
2018-11-05T21:19:51.454Z,9.40
2018-11-05T21:22:20.150Z,9.30
2018-11-05T21:24:48.622Z,9.30
2018-11-05T21:27:17.163Z,9.20
2018-11-05T21:29:45.733Z,9.20
2018-11-05T21:32:14.279Z,9.20
2018-11-05T21:34:42.846Z,9.20
2018-11-05T21:37:11.321Z,9.20
2018-11-05T21:39:39.916Z,9.30
2018-11-05T21:42:08.435Z,9.30
2018-11-05T21:44:37.007Z,9.40
2018-11-05T21:47:05.739Z,9.30
2018-11-05T21:49:34.313Z,9.30
2018-11-05T21:52:02.796Z,9.20
2018-11-05T21:54:32.343Z,9.20
2018-11-05T21:57:00.816Z,9.20
2018-11-05T21:59:29.315Z,9.10
2018-11-05T22:01:57.763Z,9.10
2018-11-05T22:04:26.242Z,9.10
2018-11-05T22:06:54.806Z,8.90
2018-11-05T22:09:23.267Z,8.80
2018-11-05T22:11:52.739Z,8.60
2018-11-05T22:14:21.211Z,8.50
2018-11-05T22:16:49.703Z,8.40
2018-11-05T22:19:18.186Z,8.50
2018-11-05T22:21:46.663Z,8.40
2018-11-05T22:24:15.119Z,8.30
2018-11-05T22:26:43.675Z,8.00
2018-11-05T22:29:12.284Z,8.00
2018-11-05T22:31:40.799Z,8.20
2018-11-05T22:34:09.242Z,8.20
2018-11-05T22:36:38.811Z,8.30
2018-11-05T22:39:08.182Z,8.30
2018-11-05T22:41:36.764Z,8.30
2018-11-05T22:44:05.340Z,8.20
2018-11-05T22:46:33.785Z,8.10
2018-11-05T22:49:02.363Z,8.10
2018-11-05T22:51:30.858Z,8.20
2018-11-05T22:53:59.353Z,8.20
2018-11-05T22:56:27.793Z,8.10
2018-11-05T23:01:33.046Z,8.10
2018-11-05T23:04:03.210Z,8.00
2018-11-05T23:06:32.201Z,8.00
2018-11-05T23:09:00.750Z,7.90
2018-11-05T23:11:29.278Z,7.70
2018-11-05T23:13:57.789Z,7.60
2018-11-05T23:16:26.442Z,7.50
2018-11-05T23:18:55.096Z,7.40
2018-11-05T23:21:23.563Z,7.50
2018-11-05T23:23:52.179Z,7.40
2018-11-05T23:26:20.778Z,7.40
2018-11-05T23:28:49.533Z,7.40
2018-11-05T23:31:18.089Z,7.30
2018-11-05T23:33:46.606Z,7.30
2018-11-05T23:36:15.067Z,7.20
2018-11-05T23:38:43.711Z,7.30
2018-11-05T23:41:12.406Z,7.30
2018-11-05T23:43:40.910Z,7.20
2018-11-05T23:46:09.540Z,7.10
2018-11-05T23:48:38.134Z,6.90
2018-11-05T23:51:06.678Z,6.90
2018-11-05T23:53:35.195Z,6.80
2018-11-05T23:56:03.776Z,6.70
2018-11-05T23:58:32.423Z,6.70
